Time;durP1;ratioP1;P1;durP2;ratioP2;P2;SDS_P1;SDS_P2;PMS_P1;PMS_P2;Temp;Humidity;BMP_temperature;BMP_pressure;BME280_temperature;BME280_humidity;BME280_pressure;Samples;Min_cycle;Max_cycle;Signal;HPM_P1;HPM_P2
2023/11/02 00:00:36;;;;;;;6.88;1.20;;;11.20;99.90;;;;;;5059750;28;20082;-60
2023/11/02 00:03:06;;;;;;;3.08;1.00;;;11.30;99.90;;;;;;5053572;28;20025;-59
2023/11/02 00:05:54;;;;;;;3.80;0.70;;;11.30;99.90;;;;;;5061032;28;20031;-59
2023/11/02 00:08:21;;;;;;;4.10;1.67;;;11.40;99.90;;;;;;5058627;28;20024;-56
2023/11/02 00:10:46;;;;;;;5.65;1.10;;;11.40;99.90;;;;;;5059956;28;20099;-61
2023/11/02 00:13:27;;;;;;;6.53;0.95;;;11.50;99.90;;;;;;5063080;28;20029;-58
2023/11/02 00:15:53;;;;;;;9.20;0.80;;;11.60;99.90;;;;;;5058837;28;20021;-62
2023/11/02 00:18:19;;;;;;;3.63;0.80;;;11.70;99.90;;;;;;5058974;28;20031;-60
2023/11/02 00:20:47;;;;;;;3.85;0.80;;;11.80;99.90;;;;;;5062015;28;20036;-59
2023/11/02 00:23:20;;;;;;;4.93;0.90;;;11.80;99.90;;;;;;5062659;28;20035;-60
2023/11/02 00:25:57;;;;;;;4.63;0.70;;;11.90;99.90;;;;;;5059384;28;20027;-61
2023/11/02 00:28:23;;;;;;;1.85;0.63;;;11.90;99.90;;;;;;5056215;28;20074;-58
2023/11/02 00:30:50;;;;;;;4.18;0.60;;;11.90;99.90;;;;;;5056155;28;20074;-57
2023/11/02 00:33:16;;;;;;;5.18;0.80;;;11.90;99.90;;;;;;5060402;28;20151;-62
2023/11/02 00:35:43;;;;;;;2.22;0.70;;;11.90;99.90;;;;;;5056188;28;20115;-56
2023/11/02 00:38:09;;;;;;;8.10;0.70;;;11.90;99.90;;;;;;5059093;28;20021;-57
2023/11/02 00:40:34;;;;;;;5.45;1.10;;;11.90;99.90;;;;;;5059922;28;20040;-60
2023/11/02 00:43:00;;;;;;;3.50;0.80;;;11.90;99.90;;;;;;5062924;28;20027;-56
2023/11/02 00:45:25;;;;;;;4.40;0.93;;;11.90;99.90;;;;;;5054122;28;20103;-54
2023/11/02 00:47:51;;;;;;;2.47;0.80;;;12.00;99.90;;;;;;5054875;28;20542;-57
2023/11/02 00:50:48;;;;;;;9.05;1.17;;;11.90;99.90;;;;;;5052852;28;20028;-56
2023/11/02 00:53:14;;;;;;;1.58;0.70;;;12.00;99.90;;;;;;5060774;28;20491;-57
2023/11/02 00:55:39;;;;;;;4.93;0.85;;;12.00;99.90;;;;;;5050861;28;20082;-56
2023/11/02 00:58:09;;;;;;;4.63;0.90;;;12.00;99.90;;;;;;5060826;28;20120;-59
2023/11/02 01:00:52;;;;;;;11.00;1.33;;;12.00;99.90;;;;;;5057922;28;20494;-59
2023/11/02 01:03:18;;;;;;;6.05;1.00;;;11.90;99.90;;;;;;5059266;28;20025;-57
2023/11/02 01:05:44;;;;;;;4.65;0.77;;;11.90;99.90;;;;;;5061017;28;20089;-57
2023/11/02 01:08:13;;;;;;;3.67;0.90;;;11.90;99.90;;;;;;5059212;28;20542;-57
2023/11/02 01:10:40;;;;;;;12.98;1.13;;;11.90;99.90;;;;;;5061928;28;20075;-58
2023/11/02 01:13:17;;;;;;;6.18;0.65;;;11.90;99.90;;;;;;5056066;28;20025;-59
2023/11/02 01:15:54;;;;;;;8.70;1.20;;;12.00;99.90;;;;;;5065031;28;20070;-59
2023/11/02 01:18:22;;;;;;;4.90;0.82;;;12.00;99.90;;;;;;5068316;28;20032;-60
2023/11/02 01:21:04;;;;;;;7.65;1.10;;;12.10;99.90;;;;;;5063224;28;20150;-59
2023/11/02 01:23:32;;;;;;;3.97;1.02;;;12.00;99.90;;;;;;5059858;28;20041;-60
2023/11/02 01:25:58;;;;;;;4.95;0.95;;;12.00;99.90;;;;;;5059416;28;20078;-58
2023/11/02 01:28:43;;;;;;;4.82;0.80;;;12.00;99.90;;;;;;5059383;28;20036;-56
2023/11/02 01:31:12;;;;;;;;;;;12.00;99.90;;;;;;5058794;28;20519;-55
2023/11/02 01:33:47;;;;;;;7.78;1.77;;;11.90;99.90;;;;;;5060671;28;19922;-59
2023/11/02 01:36:39;;;;;;;4.45;1.00;;;11.90;99.90;;;;;;5056544;28;20112;-59
2023/11/02 01:39:28;;;;;;;7.70;0.80;;;11.90;99.90;;;;;;5054543;28;20021;-59
2023/11/02 01:42:11;;;;;;;3.03;1.13;;;11.90;99.90;;;;;;5077698;28;20028;-54
2023/11/02 01:45:02;;;;;;;6.22;1.20;;;11.90;99.90;;;;;;5063552;28;20028;-58
2023/11/02 01:47:34;;;;;;;1.50;0.95;;;11.90;99.90;;;;;;5059972;28;20033;-59
2023/11/02 01:50:31;;;;;;;2.60;1.02;;;11.90;99.90;;;;;;5065655;28;20081;-60
2023/11/02 01:53:13;;;;;;;6.68;1.20;;;11.90;99.90;;;;;;5055200;28;20025;-55
2023/11/02 01:56:12;;;;;;;2.83;0.98;;;11.80;99.90;;;;;;5054914;28;20044;-59
2023/11/02 01:58:50;;;;;;;6.30;1.17;;;11.80;99.90;;;;;;5061083;28;20511;-60
2023/11/02 02:01:31;;;;;;;8.80;1.30;;;11.80;99.90;;;;;;5059746;28;20031;-59
2023/11/02 02:04:24;;;;;;;4.65;1.30;;;11.70;99.90;;;;;;5058297;28;20033;-60
2023/11/02 02:07:09;;;;;;;6.80;1.63;;;11.70;99.90;;;;;;5052992;28;20037;-58
2023/11/02 02:09:37;;;;;;;6.80;1.20;;;11.70;99.90;;;;;;5070406;28;20037;-59
2023/11/02 02:12:34;;;;;;;5.80;1.55;;;11.70;99.90;;;;;;5057322;28;20469;-58
2023/11/02 02:15:16;;;;;;;7.88;1.33;;;11.70;99.90;;;;;;5072088;28;20107;-59
2023/11/02 02:17:41;;;;;;;7.50;1.00;;;11.70;99.90;;;;;;5060630;28;20032;-58
2023/11/02 02:20:21;;;;;;;3.65;1.42;;;11.70;99.90;;;;;;5057533;28;20043;-59
2023/11/02 02:22:55;;;;;;;9.00;1.30;;;11.70;99.90;;;;;;5057828;28;20044;-59
2023/11/02 02:25:34;;;;;;;4.18;1.00;;;11.70;99.90;;;;;;5068039;28;21876;-57
2023/11/02 02:28:08;;;;;;;5.30;1.00;;;11.60;99.90;;;;;;5054169;28;22086;-59
2023/11/02 02:30:58;;;;;;;12.20;1.30;;;11.60;99.90;;;;;;5059181;28;21024;-59
2023/11/02 02:33:47;;;;;;;2.55;1.27;;;11.60;99.90;;;;;;5066806;28;20043;-59
2023/11/02 02:36:19;;;;;;;5.47;1.20;;;11.70;99.90;;;;;;5056339;28;20032;-56
2023/11/02 02:38:55;;;;;;;6.43;1.58;;;11.70;99.90;;;;;;5053947;28;20048;-59
2023/11/02 02:41:23;;;;;;;6.72;1.30;;;11.70;99.90;;;;;;5059128;28;20032;-59
2023/11/02 02:43:56;;;;;;;6.85;1.27;;;11.70;99.90;;;;;;5052316;28;20052;-61
2023/11/02 02:46:23;;;;;;;5.63;1.38;;;11.70;99.90;;;;;;5055755;28;20048;-58
2023/11/02 02:48:49;;;;;;;3.47;1.33;;;11.70;99.90;;;;;;5064372;28;20016;-57
2023/11/02 02:51:20;;;;;;;8.45;1.38;;;11.70;99.90;;;;;;5058885;28;20100;-58
2023/11/02 02:53:49;;;;;;;7.55;1.58;;;11.70;99.90;;;;;;5054086;28;20025;-58
2023/11/02 02:56:20;;;;;;;5.65;1.50;;;11.70;99.90;;;;;;5058105;28;20981;-60
2023/11/02 02:58:58;;;;;;;6.93;1.30;;;11.70;99.90;;;;;;5063254;28;20455;-58
2023/11/02 03:01:28;;;;;;;5.63;1.35;;;11.70;99.90;;;;;;5060760;28;20433;-57
2023/11/02 03:03:56;;;;;;;5.15;1.40;;;11.70;99.90;;;;;;5062670;28;20029;-58
2023/11/02 03:06:22;;;;;;;3.20;1.13;;;11.70;99.90;;;;;;5066074;28;20094;-58
2023/11/02 03:08:49;;;;;;;6.68;1.35;;;11.80;99.90;;;;;;5061810;28;20495;-61
2023/11/02 03:11:16;;;;;;;11.45;1.77;;;11.80;99.90;;;;;;5057842;28;20066;-59
2023/11/02 03:13:44;;;;;;;8.93;1.65;;;11.80;99.90;;;;;;5068768;28;20045;-60
2023/11/02 03:16:13;;;;;;;6.10;2.42;;;11.80;99.90;;;;;;5062454;28;20529;-60
2023/11/02 03:18:39;;;;;;;10.07;1.52;;;11.80;99.90;;;;;;5062638;28;20032;-60
2023/11/02 03:21:06;;;;;;;7.28;1.38;;;11.90;99.90;;;;;;5064833;28;20032;-60
2023/11/02 03:23:43;;;;;;;6.10;1.63;;;11.90;99.90;;;;;;5064270;28;20476;-59
2023/11/02 03:26:28;;;;;;;2.65;0.90;;;12.00;99.90;;;;;;5057291;28;20500;-60
2023/11/02 03:29:15;;;;;;;4.43;1.00;;;12.00;99.90;;;;;;5056639;28;20036;-59
2023/11/02 03:31:59;;;;;;;7.53;1.42;;;12.00;99.90;;;;;;5056976;28;20066;-61
2023/11/02 03:34:55;;;;;;;14.27;1.33;;;12.10;99.90;;;;;;5051401;28;20044;-60
2023/11/02 03:37:38;;;;;;;8.30;1.08;;;12.10;99.90;;;;;;5052894;28;21490;-61
2023/11/02 03:40:33;;;;;;;6.03;1.23;;;12.10;99.90;;;;;;5055813;28;20123;-60
2023/11/02 03:43:10;;;;;;;5.55;1.30;;;12.10;99.90;;;;;;5064093;28;20132;-60
2023/11/02 03:45:38;;;;;;;7.45;1.20;;;12.10;99.90;;;;;;5052933;28;20059;-60
2023/11/02 03:48:19;;;;;;;6.05;1.10;;;12.10;99.90;;;;;;5064449;28;20024;-58
2023/11/02 03:50:55;;;;;;;3.95;1.10;;;12.10;99.90;;;;;;5062103;28;20107;-57
2023/11/02 03:53:30;;;;;;;6.18;1.17;;;12.10;99.90;;;;;;5052805;28;20078;-59
2023/11/02 03:56:23;;;;;;;6.25;1.20;;;12.10;99.90;;;;;;5054468;28;20063;-58
2023/11/02 03:59:10;;;;;;;6.70;1.30;;;12.10;99.90;;;;;;5051983;28;20071;-57
2023/11/02 04:02:00;;;;;;;8.30;1.20;;;12.10;99.90;;;;;;5055267;28;20045;-58
2023/11/02 04:04:56;;;;;;;11.15;1.17;;;12.20;99.90;;;;;;5049446;28;20061;-55
2023/11/02 04:07:27;;;;;;;4.75;1.02;;;12.20;99.90;;;;;;5054023;28;20012;-55
2023/11/02 04:10:07;;;;;;;10.80;0.90;;;12.10;99.90;;;;;;5053214;28;20028;-57
2023/11/02 04:12:35;;;;;;;8.02;1.35;;;12.10;99.90;;;;;;5052260;28;20020;-57
2023/11/02 04:15:03;;;;;;;8.40;1.00;;;12.10;99.90;;;;;;5053380;28;20048;-56
2023/11/02 04:17:29;;;;;;;7.65;0.95;;;12.10;99.90;;;;;;5055712;28;20059;-58
2023/11/02 04:19:55;;;;;;;5.68;0.85;;;12.10;99.90;;;;;;5051980;28;20020;-58
2023/11/02 04:22:20;;;;;;;8.90;1.73;;;12.10;99.90;;;;;;5051934;28;20021;-58
2023/11/02 04:24:46;;;;;;;8.43;1.05;;;12.10;99.90;;;;;;5062624;28;20505;-60
2023/11/02 04:27:12;;;;;;;8.30;1.40;;;12.10;99.90;;;;;;5057560;28;21623;-58
2023/11/02 04:29:38;;;;;;;5.40;0.90;;;12.20;99.90;;;;;;5058293;28;20052;-55
2023/11/02 04:32:03;;;;;;;6.28;0.80;;;12.10;99.90;;;;;;5061899;28;20028;-58
2023/11/02 04:34:29;;;;;;;9.18;1.10;;;12.10;99.90;;;;;;5052603;28;20032;-58
2023/11/02 04:36:54;;;;;;;5.13;1.13;;;12.10;99.90;;;;;;5050572;28;20029;-59
2023/11/02 04:39:22;;;;;;;5.18;1.00;;;12.10;99.90;;;;;;5053551;28;20100;-58
2023/11/02 04:41:47;;;;;;;3.40;0.85;;;12.10;99.90;;;;;;5060253;28;20516;-60
2023/11/02 04:44:14;;;;;;;3.38;0.82;;;12.10;99.90;;;;;;5063223;28;20111;-59
2023/11/02 04:46:40;;;;;;;6.32;1.13;;;12.10;99.90;;;;;;5059390;28;20067;-60
2023/11/02 04:49:07;;;;;;;7.35;1.33;;;12.10;99.90;;;;;;5061751;28;20072;-58
2023/11/02 04:51:33;;;;;;;2.58;0.90;;;12.00;99.90;;;;;;5066139;28;20075;-56
2023/11/02 04:53:58;;;;;;;3.78;0.80;;;11.90;99.90;;;;;;5062500;28;20028;-58
2023/11/02 04:56:24;;;;;;;5.75;0.80;;;11.80;99.90;;;;;;5070169;28;20027;-58
2023/11/02 04:58:49;;;;;;;3.05;0.88;;;11.70;99.90;;;;;;5067193;28;20111;-60
2023/11/02 05:01:15;;;;;;;5.93;1.10;;;11.60;99.90;;;;;;5071298;28;20428;-58
2023/11/02 05:03:41;;;;;;;3.22;1.00;;;11.60;99.90;;;;;;5069946;28;20033;-55
2023/11/02 05:06:06;;;;;;;5.50;1.00;;;11.60;99.90;;;;;;5064878;28;20024;-60
2023/11/02 05:08:32;;;;;;;5.82;0.95;;;11.60;99.90;;;;;;5067120;28;20029;-59
2023/11/02 05:10:58;;;;;;;2.72;0.90;;;11.60;99.90;;;;;;5068905;28;20047;-58
2023/11/02 05:13:23;;;;;;;2.03;0.70;;;11.70;99.90;;;;;;5069327;28;20028;-57
2023/11/02 05:15:48;;;;;;;4.32;0.85;;;11.70;99.90;;;;;;5068904;28;20567;-59
2023/11/02 05:18:14;;;;;;;4.47;0.90;;;11.70;99.90;;;;;;5067739;28;20034;-58
2023/11/02 05:20:40;;;;;;;13.32;1.02;;;11.80;99.90;;;;;;5064402;28;20032;-57
2023/11/02 05:23:07;;;;;;;8.77;1.00;;;11.80;99.90;;;;;;5069273;28;20021;-57
2023/11/02 05:25:33;;;;;;;7.05;1.17;;;11.90;99.90;;;;;;5064315;28;20090;-57
2023/11/02 05:28:00;;;;;;;6.63;0.80;;;11.80;99.90;;;;;;5064773;28;20051;-57
2023/11/02 05:30:25;;;;;;;10.70;1.10;;;11.80;99.90;;;;;;5065921;28;21163;-57
2023/11/02 05:32:51;;;;;;;7.43;1.00;;;11.90;99.90;;;;;;5062449;28;20044;-57
2023/11/02 05:35:16;;;;;;;4.13;0.88;;;11.80;99.90;;;;;;5059646;28;20098;-57
2023/11/02 05:37:42;;;;;;;2.05;0.73;;;11.80;99.90;;;;;;5061873;28;20111;-59
2023/11/02 05:40:08;;;;;;;3.08;0.80;;;11.80;99.90;;;;;;5056136;28;20490;-62
2023/11/02 05:42:34;;;;;;;3.05;0.75;;;11.90;99.90;;;;;;5056515;28;20035;-60
2023/11/02 05:45:02;;;;;;;5.63;0.88;;;11.90;99.90;;;;;;5064041;28;20017;-61
2023/11/02 05:47:27;;;;;;;11.82;0.93;;;11.90;99.90;;;;;;5065917;28;20383;-60
2023/11/02 05:49:53;;;;;;;5.70;0.75;;;11.90;99.90;;;;;;5062275;28;20050;-59
2023/11/02 05:52:18;;;;;;;8.52;1.50;;;12.00;99.90;;;;;;5060141;28;20295;-59
2023/11/02 05:54:44;;;;;;;3.10;0.60;;;12.00;99.90;;;;;;5054117;28;20486;-58
2023/11/02 05:57:11;;;;;;;2.83;0.63;;;12.00;99.90;;;;;;5058951;28;20356;-54
2023/11/02 05:59:38;;;;;;;5.53;0.70;;;12.00;99.90;;;;;;5060024;28;20461;-60
2023/11/02 06:02:03;;;;;;;3.25;0.93;;;12.00;99.90;;;;;;5058019;28;20437;-58
2023/11/02 06:04:29;;;;;;;6.50;0.73;;;12.10;99.90;;;;;;5059551;28;20056;-64
2023/11/02 06:06:54;;;;;;;3.55;0.50;;;12.10;99.90;;;;;;5056666;28;20479;-62
2023/11/02 06:09:20;;;;;;;2.72;0.68;;;12.20;99.90;;;;;;5059650;28;20074;-63
2023/11/02 06:11:45;;;;;;;2.45;0.85;;;12.20;99.90;;;;;;5061267;28;20040;-63
2023/11/02 06:14:11;;;;;;;4.18;0.73;;;12.20;99.90;;;;;;5061179;28;20083;-60
2023/11/02 06:16:36;;;;;;;12.30;0.75;;;12.20;99.90;;;;;;5048107;28;20036;-61
2023/11/02 06:19:02;;;;;;;3.35;0.85;;;12.20;99.90;;;;;;5055529;28;20029;-63
2023/11/02 06:21:27;;;;;;;3.65;0.75;;;12.20;99.90;;;;;;5049674;28;20048;-61
2023/11/02 06:23:53;;;;;;;5.80;0.77;;;12.10;99.90;;;;;;5057111;28;20028;-50
2023/11/02 06:26:19;;;;;;;6.85;0.60;;;12.20;99.90;;;;;;5048064;28;20074;-62
2023/11/02 06:28:48;;;;;;;2.05;0.60;;;12.10;99.90;;;;;;5054526;28;20029;-62
2023/11/02 06:31:13;;;;;;;2.70;0.80;;;12.10;99.90;;;;;;5055926;28;20529;-63
2023/11/02 06:33:39;;;;;;;1.80;0.50;;;12.10;99.90;;;;;;5061138;28;20020;-63
2023/11/02 06:36:05;;;;;;;3.10;0.60;;;12.10;99.90;;;;;;5058496;28;20039;-61
2023/11/02 06:38:31;;;;;;;2.67;0.65;;;12.10;99.90;;;;;;5059661;28;20056;-62
2023/11/02 06:40:57;;;;;;;3.03;0.60;;;12.10;99.90;;;;;;5058112;28;20043;-63
2023/11/02 06:43:22;;;;;;;3.80;0.85;;;12.20;99.90;;;;;;5065747;28;20494;-61
2023/11/02 06:45:48;;;;;;;2.97;0.70;;;12.30;99.90;;;;;;5059288;28;20074;-61
2023/11/02 06:48:14;;;;;;;2.10;0.60;;;12.30;99.90;;;;;;5070538;28;20082;-63
2023/11/02 06:50:39;;;;;;;1.77;0.40;;;12.30;99.90;;;;;;5061532;28;20039;-63
2023/11/02 06:53:05;;;;;;;3.92;0.70;;;12.40;99.90;;;;;;5063955;28;20042;-63
2023/11/02 06:55:31;;;;;;;2.05;0.60;;;12.40;99.90;;;;;;5061857;28;20104;-62
2023/11/02 06:57:57;;;;;;;1.63;0.60;;;12.40;99.90;;;;;;5053293;28;20044;-61
2023/11/02 07:00:22;;;;;;;1.58;0.50;;;12.40;99.90;;;;;;5064993;28;20063;-63
2023/11/02 07:02:48;;;;;;;2.17;0.70;;;12.40;99.90;;;;;;5070512;28;20023;-63
2023/11/02 07:05:14;;;;;;;1.58;0.63;;;12.40;99.90;;;;;;5069369;28;20111;-63
2023/11/02 07:07:40;;;;;;;2.10;0.70;;;12.40;99.90;;;;;;5068662;28;20133;-62
2023/11/02 07:10:09;;;;;;;3.40;0.57;;;12.30;99.90;;;;;;5063328;28;20040;-64
2023/11/02 07:12:36;;;;;;;5.28;0.70;;;12.30;99.90;;;;;;5067841;28;20028;-63
2023/11/02 07:15:02;;;;;;;4.72;0.70;;;12.20;99.90;;;;;;5063133;28;20028;-62
2023/11/02 07:17:27;;;;;;;3.78;1.83;;;12.10;99.90;;;;;;5068866;28;20020;-64
2023/11/02 07:19:53;;;;;;;7.90;1.10;;;12.00;99.90;;;;;;5062508;28;20502;-64
2023/11/02 07:22:19;;;;;;;1.73;0.75;;;11.80;99.90;;;;;;5065484;28;20105;-64
2023/11/02 07:24:45;;;;;;;2.22;0.75;;;11.70;99.90;;;;;;5066167;28;20047;-64
2023/11/02 07:27:11;;;;;;;4.80;0.70;;;11.70;99.90;;;;;;5062555;28;20764;-63
2023/11/02 07:29:37;;;;;;;3.00;0.60;;;11.60;99.90;;;;;;5067213;28;20029;-61
2023/11/02 07:32:03;;;;;;;4.25;0.80;;;11.60;99.90;;;;;;5067141;28;20086;-62
2023/11/02 07:34:29;;;;;;;13.07;1.10;;;11.50;99.90;;;;;;5062173;28;20025;-63
2023/11/02 07:36:56;;;;;;;6.22;1.10;;;11.40;99.90;;;;;;5069707;28;20426;-63
2023/11/02 07:39:22;;;;;;;1.98;0.95;;;11.30;99.90;;;;;;5070322;28;20074;-64
2023/11/02 07:41:47;;;;;;;5.32;0.70;;;11.30;99.90;;;;;;5061106;28;20037;-63
2023/11/02 07:44:13;;;;;;;5.40;0.95;;;11.40;99.90;;;;;;5064594;28;20028;-64
2023/11/02 07:46:39;;;;;;;4.65;0.90;;;11.40;99.90;;;;;;5061957;28;20040;-62
2023/11/02 07:49:04;;;;;;;5.88;0.90;;;11.40;99.90;;;;;;5064723;28;20028;-64
2023/11/02 07:51:30;;;;;;;5.00;1.50;;;11.40;99.90;;;;;;5066858;28;20016;-63
2023/11/02 07:53:55;;;;;;;3.67;1.05;;;11.40;99.90;;;;;;5068497;28;20367;-63
2023/11/02 07:56:21;;;;;;;1.50;0.60;;;11.40;99.90;;;;;;5063991;28;20062;-60
2023/11/02 07:58:46;;;;;;;6.35;0.77;;;11.40;99.90;;;;;;5068394;28;20036;-61
2023/11/02 08:01:16;;;;;;;2.10;0.98;;;11.50;99.90;;;;;;5062856;28;20096;-63
2023/11/02 08:03:41;;;;;;;4.57;1.10;;;11.50;99.90;;;;;;5067238;28;20024;-63
2023/11/02 08:06:07;;;;;;;4.55;1.00;;;11.50;99.90;;;;;;5061305;28;20047;-63
2023/11/02 08:08:33;;;;;;;2.70;0.90;;;11.40;99.90;;;;;;5066222;28;20074;-63
2023/11/02 08:10:59;;;;;;;1.33;0.60;;;11.50;99.90;;;;;;5056593;28;20025;-64
2023/11/02 08:13:24;;;;;;;6.53;1.00;;;11.50;99.90;;;;;;5065809;28;20078;-62
2023/11/02 08:15:50;;;;;;;4.57;0.85;;;11.60;99.90;;;;;;5057852;28;20039;-63
2023/11/02 08:18:15;;;;;;;2.70;1.15;;;11.70;99.90;;;;;;5060593;28;20029;-62
2023/11/02 08:20:41;;;;;;;1.02;0.85;;;11.70;99.90;;;;;;5057089;28;20045;-63
2023/11/02 08:23:06;;;;;;;5.00;1.33;;;11.80;99.90;;;;;;5063741;28;20044;-62
2023/11/02 08:25:32;;;;;;;1.95;0.93;;;11.80;99.90;;;;;;5057121;28;20142;-63
2023/11/02 08:28:00;;;;;;;1.75;0.60;;;11.90;99.90;;;;;;5063137;28;20086;-61
2023/11/02 08:30:27;;;;;;;1.08;0.80;;;11.90;99.90;;;;;;5063331;28;20557;-61
2023/11/02 08:32:54;;;;;;;2.20;1.00;;;11.90;99.90;;;;;;5060202;28;20041;-64
2023/11/02 08:35:21;;;;;;;4.80;0.70;;;12.00;99.90;;;;;;5060252;28;20108;-56
2023/11/02 08:37:48;;;;;;;4.68;0.70;;;12.00;99.90;;;;;;5056988;28;20238;-63
2023/11/02 08:40:14;;;;;;;1.75;1.00;;;12.10;99.90;;;;;;5054468;28;21975;-63
2023/11/02 08:42:40;;;;;;;1.42;0.98;;;12.20;99.90;;;;;;5057275;28;20044;-62
2023/11/02 08:45:06;;;;;;;2.67;0.70;;;12.20;99.90;;;;;;5060702;28;20024;-63
2023/11/02 08:47:32;;;;;;;2.63;0.90;;;12.30;99.90;;;;;;5061471;28;20036;-61
2023/11/02 08:49:57;;;;;;;1.00;0.60;;;12.30;99.90;;;;;;5066972;28;20032;-63
2023/11/02 08:52:23;;;;;;;3.20;0.80;;;12.40;99.90;;;;;;5062079;28;20078;-62
2023/11/02 08:54:50;;;;;;;2.08;0.70;;;12.50;99.90;;;;;;5062801;28;20028;-64
2023/11/02 08:57:16;;;;;;;2.35;0.70;;;12.50;99.90;;;;;;5057596;28;20083;-64
2023/11/02 08:59:42;;;;;;;2.50;0.70;;;12.60;99.90;;;;;;5067297;28;20028;-64
2023/11/02 09:02:08;;;;;;;3.17;0.80;;;12.60;99.90;;;;;;5058584;28;20020;-63
2023/11/02 09:04:34;;;;;;;5.65;0.70;;;12.70;99.90;;;;;;5056721;28;20021;-64
2023/11/02 09:06:59;;;;;;;2.33;0.55;;;12.70;99.90;;;;;;5053997;28;20112;-63
2023/11/02 09:09:25;;;;;;;0.98;0.60;;;12.80;99.90;;;;;;5060119;28;20040;-63
2023/11/02 09:11:52;;;;;;;5.03;1.23;;;12.80;99.90;;;;;;5060240;28;20033;-62
2023/11/02 09:14:18;;;;;;;2.15;0.55;;;12.80;99.90;;;;;;5065976;28;20082;-63
2023/11/02 09:16:44;;;;;;;6.38;0.85;;;12.90;99.90;;;;;;5058284;28;20060;-61
2023/11/02 09:19:10;;;;;;;5.20;0.98;;;13.00;99.90;;;;;;5055826;28;20079;-63
2023/11/02 09:21:39;;;;;;;4.65;0.68;;;13.10;99.90;;;;;;5063030;28;20070;-64
2023/11/02 09:24:06;;;;;;;2.38;0.77;;;13.20;99.90;;;;;;5059448;28;20036;-63
2023/11/02 09:26:32;;;;;;;3.58;1.08;;;13.40;99.90;;;;;;5058971;28;20027;-64
2023/11/02 09:28:58;;;;;;;2.63;0.57;;;13.50;99.90;;;;;;5062537;28;20025;-63
2023/11/02 09:31:29;;;;;;;1.80;1.05;;;13.60;99.90;;;;;;5059814;28;20029;-66
2023/11/02 09:33:58;;;;;;;3.58;0.73;;;13.60;99.90;;;;;;5061728;28;20051;-64
2023/11/02 09:36:24;;;;;;;3.20;0.80;;;13.70;99.90;;;;;;5062392;28;20021;-63
2023/11/02 09:38:50;;;;;;;4.72;0.60;;;13.80;99.90;;;;;;5064293;28;20036;-63
2023/11/02 09:41:16;;;;;;;4.68;0.60;;;13.80;99.90;;;;;;5061795;28;20032;-63
2023/11/02 09:43:41;;;;;;;3.22;1.02;;;13.90;99.90;;;;;;5060242;28;20033;-64
2023/11/02 09:46:07;;;;;;;5.65;1.25;;;13.90;99.90;;;;;;5063598;28;20060;-63
2023/11/02 09:48:33;;;;;;;9.48;1.00;;;14.00;99.90;;;;;;5067090;28;20508;-63
2023/11/02 09:50:59;;;;;;;7.53;0.43;;;14.10;99.90;;;;;;5058985;28;20032;-65
2023/11/02 09:53:26;;;;;;;4.60;0.70;;;14.10;99.90;;;;;;5067539;28;20547;-65
2023/11/02 09:55:52;;;;;;;4.85;0.75;;;14.20;99.90;;;;;;5063222;28;20081;-63
2023/11/02 09:58:19;;;;;;;1.70;0.80;;;14.20;99.90;;;;;;5061573;28;20032;-64
2023/11/02 10:00:46;;;;;;;9.93;1.00;;;14.30;99.90;;;;;;5057529;28;20471;-63
2023/11/02 10:03:12;;;;;;;2.75;0.82;;;14.40;99.90;;;;;;5059961;28;20025;-62
2023/11/02 10:05:38;;;;;;;11.30;1.48;;;14.40;99.90;;;;;;5062097;28;20027;-65
2023/11/02 10:08:04;;;;;;;5.22;1.08;;;14.50;99.90;;;;;;5061871;28;20390;-63
2023/11/02 10:10:33;;;;;;;7.45;0.80;;;14.50;99.90;;;;;;5060607;28;20063;-65
2023/11/02 10:12:59;;;;;;;3.97;0.75;;;14.60;99.90;;;;;;5061011;28;20091;-64
2023/11/02 10:15:25;;;;;;;7.25;1.35;;;14.70;99.90;;;;;;5061549;28;20025;-63
2023/11/02 10:17:51;;;;;;;4.80;0.70;;;14.70;99.90;;;;;;5062303;28;20024;-64
2023/11/02 10:20:17;;;;;;;2.80;0.68;;;14.80;99.90;;;;;;5064732;28;20083;-65
2023/11/02 10:23:05;;;;;;;4.38;0.93;;;14.70;99.90;;;;;;5060524;28;20031;-65
2023/11/02 10:25:31;;;;;;;6.63;1.00;;;14.80;99.90;;;;;;5064588;28;21443;-65
2023/11/02 10:27:57;;;;;;;3.60;0.70;;;14.80;99.90;;;;;;5064142;28;20040;-64
2023/11/02 10:30:25;;;;;;;5.80;1.05;;;14.80;99.90;;;;;;5064556;28;20029;-63
2023/11/02 10:32:50;;;;;;;7.57;1.23;;;14.90;99.90;;;;;;5062982;28;20060;-62
2023/11/02 10:35:16;;;;;;;9.32;0.82;;;14.90;99.90;;;;;;5066795;28;20470;-64
2023/11/02 10:37:43;;;;;;;9.23;0.88;;;14.90;99.90;;;;;;5061788;28;20057;-64
2023/11/02 10:40:10;;;;;;;6.55;1.15;;;14.90;99.90;;;;;;5064035;28;20028;-63
2023/11/02 10:42:39;;;;;;;8.05;0.93;;;15.00;99.90;;;;;;5060407;28;20470;-64
2023/11/02 10:45:06;;;;;;;9.07;1.35;;;15.00;99.90;;;;;;5064640;28;20500;-63
2023/11/02 10:47:37;;;;;;;7.93;0.95;;;15.00;99.90;;;;;;5058758;28;20060;-64
2023/11/02 10:50:06;;;;;;;9.07;1.38;;;15.10;99.90;;;;;;5066581;28;20622;-64
2023/11/02 10:52:50;;;;;;;8.27;1.30;;;15.20;99.90;;;;;;5057993;28;20488;-63
2023/11/02 10:55:28;;;;;;;4.47;1.42;;;15.20;99.90;;;;;;5062119;28;20107;-65
2023/11/02 10:57:54;;;;;;;4.53;1.00;;;15.20;99.90;;;;;;5058933;28;20053;-65
2023/11/02 11:00:25;;;;;;;6.72;1.38;;;15.20;99.90;;;;;;5060649;28;20017;-65
2023/11/02 11:02:51;;;;;;;9.38;1.25;;;15.20;99.90;;;;;;5064305;28;20494;-64
2023/11/02 11:05:20;;;;;;;6.85;1.02;;;15.20;99.90;;;;;;5059209;28;20075;-64
2023/11/02 11:07:46;;;;;;;5.35;1.65;;;15.20;99.90;;;;;;5063144;28;20020;-64
2023/11/02 11:10:13;;;;;;;11.60;1.02;;;15.20;99.90;;;;;;5055747;28;20029;-65
2023/11/02 11:12:42;;;;;;;8.85;1.15;;;15.10;99.90;;;;;;5061526;28;20505;-64
2023/11/02 11:15:11;;;;;;;13.02;1.40;;;15.20;99.90;;;;;;5055327;28;20491;-65
2023/11/02 11:17:45;;;;;;;8.98;0.93;;;15.10;99.90;;;;;;5066927;28;20021;-65
2023/11/02 11:20:16;;;;;;;11.15;1.08;;;15.10;99.90;;;;;;5056998;28;20031;-64
2023/11/02 11:22:45;;;;;;;11.68;1.63;;;15.00;99.90;;;;;;5060745;28;20074;-64
2023/11/02 11:25:11;;;;;;;7.40;1.38;;;15.00;99.90;;;;;;5061841;28;20106;-64
2023/11/02 11:27:38;;;;;;;11.70;1.58;;;15.30;99.90;;;;;;5064800;28;20100;-64
2023/11/02 11:30:26;;;;;;;5.15;1.00;;;15.50;99.90;;;;;;5056137;28;20490;-64
2023/11/02 11:32:51;;;;;;;6.85;1.17;;;15.90;99.90;;;;;;5066907;28;20052;-66
2023/11/02 11:35:17;;;;;;;5.65;1.27;;;15.70;99.90;;;;;;5058402;28;20040;-63
2023/11/02 11:37:57;;;;;;;7.60;1.02;;;15.80;99.90;;;;;;5062804;28;20024;-64
2023/11/02 11:40:29;;;;;;;8.02;1.30;;;16.10;99.90;;;;;;5066070;28;20380;-65
2023/11/02 11:43:15;;;;;;;7.93;1.23;;;16.20;99.90;;;;;;5060912;28;20387;-65
2023/11/02 11:46:00;;;;;;;7.97;1.15;;;16.40;99.90;;;;;;5061048;28;20051;-64
2023/11/02 11:48:32;;;;;;;10.48;1.17;;;16.60;99.90;;;;;;5059342;28;20100;-64
2023/11/02 11:50:58;;;;;;;5.25;1.17;;;16.40;99.90;;;;;;5067757;28;20031;-66
2023/11/02 11:53:25;;;;;;;14.10;1.00;;;16.20;99.90;;;;;;5064176;28;20587;-64
2023/11/02 11:55:53;;;;;;;5.45;0.77;;;16.50;99.90;;;;;;5070186;28;20097;-64
2023/11/02 11:58:44;;;;;;;8.02;1.25;;;16.80;99.90;;;;;;5055592;28;20434;-64
2023/11/02 12:01:18;;;;;;;13.70;1.70;;;16.90;99.90;;;;;;5057176;28;20095;-63
2023/11/02 12:03:50;;;;;;;12.02;1.67;;;17.00;99.90;;;;;;5062451;28;20074;-65
2023/11/02 12:06:37;;;;;;;8.00;1.20;;;17.10;99.90;;;;;;5066590;28;20017;-64
2023/11/02 12:09:13;;;;;;;10.10;1.55;;;17.20;99.90;;;;;;5072459;28;20020;-65
2023/11/02 12:11:42;;;;;;;7.43;1.45;;;17.20;99.90;;;;;;5064268;28;20032;-63
2023/11/02 12:14:20;;;;;;;7.03;1.90;;;16.80;99.90;;;;;;5073013;28;20103;-65
2023/11/02 12:16:47;;;;;;;16.90;1.67;;;16.60;99.90;;;;;;5052814;28;20032;-63
2023/11/02 12:19:12;;;;;;;11.20;1.77;;;16.80;99.90;;;;;;5066016;28;20061;-65
2023/11/02 12:21:40;;;;;;;9.93;1.30;;;17.00;99.90;;;;;;5058513;28;20049;-64
2023/11/02 12:24:10;;;;;;;25.90;1.60;;;17.20;99.90;;;;;;5073231;28;20024;-63
2023/11/02 12:26:36;;;;;;;8.48;1.38;;;16.80;99.90;;;;;;5063527;28;20032;-65
2023/11/02 12:29:09;;;;;;;6.88;1.50;;;16.40;99.90;;;;;;5063757;28;20394;-63
2023/11/02 12:31:39;;;;;;;14.60;1.70;;;16.30;99.90;;;;;;5062249;28;20560;-65
2023/11/02 12:34:08;;;;;;;10.57;1.52;;;16.50;99.90;;;;;;5067987;28;20016;-65
2023/11/02 12:36:35;;;;;;;11.13;1.25;;;16.40;99.90;;;;;;5071909;28;20029;-65
2023/11/02 12:39:05;;;;;;;14.65;2.03;;;16.50;99.90;;;;;;5073462;28;20044;-65
2023/11/02 12:41:33;;;;;;;7.88;1.60;;;16.20;99.90;;;;;;5061421;28;20025;-64
2023/11/02 12:44:09;;;;;;;12.40;1.98;;;16.60;99.90;;;;;;5059283;28;20021;-64
2023/11/02 12:46:43;;;;;;;14.77;2.22;;;16.90;99.90;;;;;;5061496;28;20029;-65
2023/11/02 12:49:22;;;;;;;10.77;1.70;;;17.10;99.90;;;;;;5059661;28;20371;-64
2023/11/02 12:51:53;;;;;;;13.60;1.67;;;16.90;99.90;;;;;;5061490;28;20044;-65
2023/11/02 12:54:19;;;;;;;8.10;1.38;;;17.10;99.90;;;;;;5060131;28;20029;-63
2023/11/02 12:56:46;;;;;;;11.43;1.88;;;17.10;99.90;;;;;;5081579;28;20016;-63
2023/11/02 12:59:12;;;;;;;7.32;1.65;;;17.00;99.90;;;;;;5060411;28;20075;-64